Time;durP1;ratioP1;P1;durP2;ratioP2;P2;SDS_P1;SDS_P2;PMS_P1;PMS_P2;Temp;Humidity;BMP_temperature;BMP_pressure;BME280_temperature;BME280_humidity;BME280_pressure;Samples;Min_cycle;Max_cycle;Signal;HPM_P1;HPM_P2
2022/10/14 00:01:18;;;;;;;;;;;;;;;;;;4421655;32;20049;-70
2022/10/14 00:03:43;;;;;;;164.07;68.22;;;;;;;;;;4421731;32;19998;-66
2022/10/14 00:06:11;;;;;;;140.48;64.90;;;;;;;;;;4428403;32;20021;-67
2022/10/14 00:08:36;;;;;;;130.25;64.70;;;;;;;;;;4437179;32;20037;-66
2022/10/14 00:11:01;;;;;;;;;;;;;;;;;;4423508;32;20083;-66
2022/10/14 00:13:26;;;;;;;142.45;70.80;;;;;;;;;;4437234;32;19933;-67
2022/10/14 00:15:51;;;;;;;125.10;67.45;;;;;;;;;;4436201;32;20384;-66
2022/10/14 00:18:16;;;;;;;142.05;69.18;;;;;;;;;;4437469;32;20134;-67
2022/10/14 00:20:41;;;;;;;;;;;;;;;;;;4435925;32;20093;-65
2022/10/14 00:23:07;;;;;;;106.63;59.20;;;;;;;;;;4421370;32;19936;-67
2022/10/14 00:25:32;;;;;;;;;;;;;;;;;;4423543;32;20143;-66
2022/10/14 00:27:57;;;;;;;133.45;65.37;;;;;;;;;;4435687;32;19936;-68
2022/10/14 00:30:22;;;;;;;147.70;72.50;;;;;;;;;;4423324;32;20034;-66
2022/10/14 00:32:47;;;;;;;134.37;66.72;;;;;;;;;;4437020;32;20061;-67
2022/10/14 00:35:12;;;;;;;;;;;;;;;;;;4420016;32;20415;-65
2022/10/14 00:37:38;;;;;;;106.70;60.35;;;;;;;;;;4421560;32;19971;-67
2022/10/14 00:40:04;;;;;;;159.12;80.18;;;;;;;;;;4419995;32;20038;-65
2022/10/14 00:42:32;;;;;;;139.05;73.68;;;;;;;;;;4421543;32;20053;-67
2022/10/14 00:45:03;;;;;;;107.22;61.60;;;;;;;;;;4420017;32;20094;-67
2022/10/14 00:47:28;;;;;;;108.35;62.97;;;;;;;;;;4420696;32;20099;-66
2022/10/14 00:49:53;;;;;;;;;;;;;;;;;;4420692;32;20018;-66
2022/10/14 00:52:20;;;;;;;135.02;69.75;;;;;;;;;;4420571;32;20380;-66
2022/10/14 00:54:46;;;;;;;123.53;70.57;;;;;;;;;;4420052;32;20022;-67
2022/10/14 00:57:11;;;;;;;;;;;;;;;;;;4406545;32;20399;-65
2022/10/14 00:59:36;;;;;;;167.68;79.87;;;;;;;;;;4407894;32;19992;-67
2022/10/14 01:02:01;;;;;;;158.85;78.93;;;;;;;;;;4421625;32;20074;-66
2022/10/14 01:04:27;;;;;;;154.02;77.45;;;;;;;;;;4419435;32;20443;-68
2022/10/14 01:06:52;;;;;;;;;;;;;;;;;;4434227;32;20096;-66
2022/10/14 01:09:17;;;;;;;115.35;65.60;;;;;;;;;;4437333;32;19951;-66
2022/10/14 01:12:01;;;;;;;119.35;71.97;;;;;;;;;;4437123;32;20130;-65
2022/10/14 01:14:26;;;;;;;101.93;63.83;;;;;;;;;;4435021;32;20025;-67
2022/10/14 01:16:51;;;;;;;;;;;;;;;;;;4435731;32;20320;-66
2022/10/14 01:19:31;;;;;;;131.73;75.43;;;;;;;;;;4436631;32;19937;-66
2022/10/14 01:22:02;;;;;;;114.97;67.35;;;;;;;;;;4435030;32;20097;-67
2022/10/14 01:24:47;;;;;;;113.95;67.40;;;;;;;;;;4436825;32;20026;-66
2022/10/14 01:27:15;;;;;;;99.53;63.87;;;;;;;;;;4421611;32;20026;-66
2022/10/14 01:30:00;;;;;;;114.25;68.72;;;;;;;;;;4421462;32;20041;-67
2022/10/14 01:32:26;;;;;;;112.10;69.35;;;;;;;;;;4434863;32;20082;-67
2022/10/14 01:34:58;;;;;;;150.12;80.53;;;;;;;;;;4435217;32;20029;-67
2022/10/14 01:37:26;;;;;;;131.40;74.70;;;;;;;;;;4420092;32;20052;-67
2022/10/14 01:39:54;;;;;;;149.12;80.53;;;;;;;;;;4407235;32;20038;-66
2022/10/14 01:42:21;;;;;;;133.80;74.40;;;;;;;;;;4421361;32;20423;-67
2022/10/14 01:44:50;;;;;;;134.55;73.82;;;;;;;;;;4421372;32;20438;-66
2022/10/14 01:47:17;;;;;;;166.82;84.37;;;;;;;;;;4422105;32;20420;-66
2022/10/14 01:49:45;;;;;;;153.05;79.72;;;;;;;;;;4424414;32;20090;-67
2022/10/14 01:52:14;;;;;;;117.72;72.55;;;;;;;;;;4429751;32;20026;-67
2022/10/14 01:54:40;;;;;;;143.00;77.75;;;;;;;;;;4422096;32;20030;-67
2022/10/14 01:57:14;;;;;;;114.68;68.53;;;;;;;;;;4424326;32;20427;-66
2022/10/14 01:59:41;;;;;;;137.68;75.70;;;;;;;;;;4410248;32;20048;-66
2022/10/14 02:02:06;;;;;;;130.87;75.15;;;;;;;;;;4423804;32;20162;-67
2022/10/14 02:04:31;;;;;;;;;;;;;;;;;;4423015;32;20025;-67
2022/10/14 02:07:12;;;;;;;142.68;72.35;;;;;;;;;;4418065;32;20362;-65
2022/10/14 02:09:40;;;;;;;139.45;71.43;;;;;;;;;;4420838;32;20525;-66
2022/10/14 02:12:09;;;;;;;151.75;80.47;;;;;;;;;;4422517;32;20022;-67
2022/10/14 02:14:42;;;;;;;135.18;73.35;;;;;;;;;;4422280;32;20038;-67
2022/10/14 02:17:28;;;;;;;117.62;68.35;;;;;;;;;;4422653;32;20317;-66
2022/10/14 02:19:59;;;;;;;170.12;83.85;;;;;;;;;;4424133;32;20074;-67
2022/10/14 02:22:30;;;;;;;125.90;68.15;;;;;;;;;;4422217;32;20412;-67
2022/10/14 02:24:58;;;;;;;123.50;71.05;;;;;;;;;;4421500;32;20072;-66
2022/10/14 02:27:24;;;;;;;108.35;60.40;;;;;;;;;;4423262;32;20022;-66
2022/10/14 02:29:50;;;;;;;100.03;63.38;;;;;;;;;;4421559;32;20385;-66
2022/10/14 02:32:15;;;;;;;;;;;;;;;;;;4422798;32;20391;-66
2022/10/14 02:34:42;;;;;;;118.57;64.18;;;;;;;;;;4423162;32;19933;-67
2022/10/14 02:37:09;;;;;;;155.85;75.37;;;;;;;;;;4423336;32;20029;-67
2022/10/14 02:39:40;;;;;;;154.98;78.00;;;;;;;;;;4436531;32;20042;-67
2022/10/14 02:42:06;;;;;;;224.93;86.90;;;;;;;;;;4438792;32;20325;-66
2022/10/14 02:44:31;;;;;;;;;;;;;;;;;;4437523;32;20029;-67
2022/10/14 02:46:56;;;;;;;171.05;75.18;;;;;;;;;;4438747;32;19955;-66
2022/10/14 02:49:22;;;;;;;138.50;73.93;;;;;;;;;;4438377;32;20401;-67
2022/10/14 02:51:47;;;;;;;122.90;67.53;;;;;;;;;;4437918;32;20063;-69
2022/10/14 02:54:12;;;;;;;197.48;84.32;;;;;;;;;;4437390;32;20358;-67
2022/10/14 02:56:37;;;;;;;193.73;83.40;;;;;;;;;;4437112;32;20083;-67
2022/10/14 02:59:03;;;;;;;238.50;93.10;;;;;;;;;;4437273;32;20034;-65
2022/10/14 03:01:28;;;;;;;273.15;95.85;;;;;;;;;;4438209;32;20407;-66
2022/10/14 03:03:53;;;;;;;183.45;79.15;;;;;;;;;;4438084;32;20316;-66
2022/10/14 03:06:18;;;;;;;198.70;84.13;;;;;;;;;;4428767;32;20378;-66
2022/10/14 03:08:44;;;;;;;197.73;82.53;;;;;;;;;;4421393;32;20027;-65
2022/10/14 03:11:09;;;;;;;271.42;96.78;;;;;;;;;;4422164;32;20026;-66
2022/10/14 03:13:34;;;;;;;;;;;;;;;;;;4422173;32;20030;-65
2022/10/14 03:15:59;;;;;;;240.87;87.35;;;;;;;;;;4420916;32;19933;-66
2022/10/14 03:18:24;;;;;;;;;;;;;;;;;;4409274;32;20223;-66
2022/10/14 03:20:49;;;;;;;242.10;89.25;;;;;;;;;;4420989;32;19949;-66
2022/10/14 03:23:15;;;;;;;;;;;;;;;;;;4422818;32;20561;-66
2022/10/14 03:25:42;;;;;;;195.75;82.90;;;;;;;;;;4421131;32;19933;-65
2022/10/14 03:28:07;;;;;;;311.95;97.40;;;;;;;;;;4420724;32;20159;-67
2022/10/14 03:30:32;;;;;;;;;;;;;;;;;;4423488;32;20038;-66
2022/10/14 03:32:57;;;;;;;282.08;94.18;;;;;;;;;;4422099;32;19933;-66
2022/10/14 03:35:22;;;;;;;;;;;;;;;;;;4426293;32;20196;-66
2022/10/14 03:37:48;;;;;;;211.45;77.03;;;;;;;;;;4436353;32;20299;-68
2022/10/14 03:40:13;;;;;;;;;;;;;;;;;;4437498;32;20145;-66
2022/10/14 03:42:39;;;;;;;329.45;93.87;;;;;;;;;;4437152;32;19964;-67
2022/10/14 03:45:04;;;;;;;447.33;113.88;;;;;;;;;;4436604;32;20066;-66
2022/10/14 03:47:29;;;;;;;351.35;101.45;;;;;;;;;;4437896;32;20052;-68
2022/10/14 03:49:55;;;;;;;306.67;95.35;;;;;;;;;;4435803;32;20119;-67
2022/10/14 03:52:20;;;;;;;206.50;84.10;;;;;;;;;;4435829;32;20395;-66
2022/10/14 03:54:45;;;;;;;338.50;97.07;;;;;;;;;;4437808;32;20052;-66
2022/10/14 03:57:10;;;;;;;309.77;94.07;;;;;;;;;;4437718;32;20030;-66
2022/10/14 03:59:35;;;;;;;;;;;;;;;;;;4437205;32;20029;-66
2022/10/14 04:02:00;;;;;;;375.35;102.87;;;;;;;;;;4435711;32;19944;-66
2022/10/14 04:04:26;;;;;;;383.48;104.35;;;;;;;;;;4435811;32;20415;-68
2022/10/14 04:06:51;;;;;;;277.65;89.80;;;;;;;;;;4435572;32;20084;-66
2022/10/14 04:09:16;;;;;;;239.63;82.28;;;;;;;;;;4436155;32;20121;-67
2022/10/14 04:11:41;;;;;;;324.98;95.10;;;;;;;;;;4437258;32;20171;-67
2022/10/14 04:14:07;;;;;;;274.67;91.55;;;;;;;;;;4436309;32;20022;-67
2022/10/14 04:16:32;;;;;;;182.12;73.43;;;;;;;;;;4435941;32;20045;-66
2022/10/14 04:18:57;;;;;;;341.38;88.68;;;;;;;;;;4435313;32;20423;-67
2022/10/14 04:21:22;;;;;;;217.20;79.62;;;;;;;;;;4437188;32;20042;-66
2022/10/14 04:23:48;;;;;;;;;;;;;;;;;;4436807;32;20057;-66
2022/10/14 04:26:13;;;;;;;215.07;75.60;;;;;;;;;;4437165;32;20004;-66
2022/10/14 04:28:38;;;;;;;271.00;84.13;;;;;;;;;;4435704;32;20423;-67
2022/10/14 04:31:03;;;;;;;192.77;74.55;;;;;;;;;;4435426;32;20056;-67
2022/10/14 04:33:29;;;;;;;209.50;76.68;;;;;;;;;;4421247;32;20048;-66
2022/10/14 04:35:58;;;;;;;208.77;73.95;;;;;;;;;;4428378;32;20022;-67
2022/10/14 04:38:23;;;;;;;193.98;74.93;;;;;;;;;;4420315;32;20112;-66
2022/10/14 04:40:48;;;;;;;;;;;;;;;;;;4420482;32;20386;-66
2022/10/14 04:43:13;;;;;;;296.92;83.55;;;;;;;;;;4407803;32;19941;-67
2022/10/14 04:45:38;;;;;;;227.87;79.47;;;;;;;;;;4420281;32;20109;-67
2022/10/14 04:48:04;;;;;;;187.15;69.57;;;;;;;;;;4420659;32;20038;-67
2022/10/14 04:50:29;;;;;;;194.68;72.78;;;;;;;;;;4421595;32;20026;-67
2022/10/14 04:52:54;;;;;;;152.95;64.87;;;;;;;;;;4421306;32;20026;-67
2022/10/14 04:55:19;;;;;;;184.82;69.18;;;;;;;;;;4421088;32;20018;-66
2022/10/14 04:57:44;;;;;;;221.80;75.55;;;;;;;;;;4420054;32;20103;-66
2022/10/14 05:00:13;;;;;;;241.60;75.82;;;;;;;;;;4420660;32;20115;-68
2022/10/14 05:02:39;;;;;;;203.23;71.28;;;;;;;;;;4405869;32;20131;-67
2022/10/14 05:05:04;;;;;;;;;;;;;;;;;;4406212;32;20479;-68
2022/10/14 05:07:30;;;;;;;157.77;61.37;;;;;;;;;;4421086;32;19977;-68
2022/10/14 05:09:55;;;;;;;200.20;68.62;;;;;;;;;;4423039;32;20118;-69
2022/10/14 05:12:20;;;;;;;210.02;70.37;;;;;;;;;;4410166;32;20521;-68
2022/10/14 05:14:45;;;;;;;152.60;59.45;;;;;;;;;;4425021;32;20034;-68
2022/10/14 05:17:11;;;;;;;165.93;63.75;;;;;;;;;;4420062;32;20086;-68
2022/10/14 05:19:36;;;;;;;120.30;55.17;;;;;;;;;;4420385;32;20030;-68
2022/10/14 05:22:01;;;;;;;;;;;;;;;;;;4435303;32;20071;-68
2022/10/14 05:24:26;;;;;;;119.30;52.45;;;;;;;;;;4437811;32;19959;-68
2022/10/14 05:26:51;;;;;;;115.30;50.08;;;;;;;;;;4438886;32;20354;-68
2022/10/14 05:29:16;;;;;;;118.25;50.63;;;;;;;;;;4437996;32;20021;-67
2022/10/14 05:31:41;;;;;;;87.37;42.62;;;;;;;;;;4438250;32;20021;-68
2022/10/14 05:34:07;;;;;;;102.18;46.28;;;;;;;;;;4438067;32;20021;-68
2022/10/14 05:36:32;;;;;;;102.00;46.58;;;;;;;;;;4434619;32;20035;-68
2022/10/14 05:38:57;;;;;;;97.95;44.65;;;;;;;;;;4433605;32;20129;-68
2022/10/14 05:41:26;;;;;;;117.07;47.62;;;;;;;;;;4436289;32;20025;-69
2022/10/14 05:43:51;;;;;;;84.15;41.28;;;;;;;;;;4412836;32;20060;-67
2022/10/14 05:46:16;;;;;;;100.90;44.63;;;;;;;;;;4436857;32;20093;-69
2022/10/14 05:48:42;;;;;;;100.32;45.08;;;;;;;;;;4438630;32;20029;-69
2022/10/14 05:51:07;;;;;;;79.57;38.40;;;;;;;;;;4431532;32;20366;-68
2022/10/14 05:53:32;;;;;;;77.53;39.58;;;;;;;;;;4436840;32;20078;-69
2022/10/14 05:56:01;;;;;;;89.90;49.25;;;;;;;;;;4435316;32;20057;-69
2022/10/14 05:58:27;;;;;;;96.85;43.30;;;;;;;;;;4435277;32;20037;-69
2022/10/14 06:00:52;;;;;;;;;;;;;;;;;;4438750;32;20078;-69
2022/10/14 06:03:17;;;;;;;82.18;41.35;;;;;;;;;;4437407;32;20005;-68
2022/10/14 06:05:43;;;;;;;89.57;43.80;;;;;;;;;;4423045;32;20056;-69
2022/10/14 06:08:08;;;;;;;96.28;42.13;;;;;;;;;;4436529;32;20061;-68
2022/10/14 06:10:34;;;;;;;;;;;;;;;;;;4438691;32;20355;-68
2022/10/14 06:12:59;;;;;;;88.68;40.45;;;;;;;;;;4438555;32;19980;-70
2022/10/14 06:15:24;;;;;;;97.88;44.72;;;;;;;;;;4437521;32;20017;-68
2022/10/14 06:17:49;;;;;;;;;;;;;;;;;;4437236;32;20141;-69
2022/10/14 06:20:14;;;;;;;95.62;44.65;;;;;;;;;;4437718;32;19994;-67
2022/10/14 06:22:39;;;;;;;101.20;43.72;;;;;;;;;;4436506;32;20471;-68
2022/10/14 06:25:05;;;;;;;99.55;42.42;;;;;;;;;;4431453;32;20037;-70
2022/10/14 06:27:30;;;;;;;94.72;42.35;;;;;;;;;;4437315;32;20048;-68
2022/10/14 06:29:55;;;;;;;83.82;39.97;;;;;;;;;;4437213;32;20403;-69
2022/10/14 06:32:20;;;;;;;106.40;45.88;;;;;;;;;;4438365;32;20085;-67
2022/10/14 06:34:46;;;;;;;93.75;42.00;;;;;;;;;;4415538;32;20084;-70
2022/10/14 06:37:11;;;;;;;103.30;42.90;;;;;;;;;;4437473;32;20026;-69
2022/10/14 06:39:36;;;;;;;93.65;42.03;;;;;;;;;;4436840;32;20041;-69
2022/10/14 06:42:02;;;;;;;92.80;39.67;;;;;;;;;;4422898;32;20459;-68
2022/10/14 06:44:27;;;;;;;93.18;41.92;;;;;;;;;;4436070;32;20102;-71
2022/10/14 06:46:52;;;;;;;100.30;41.78;;;;;;;;;;4436277;32;20022;-68
2022/10/14 06:49:17;;;;;;;99.87;42.22;;;;;;;;;;4437665;32;20022;-69
2022/10/14 06:51:42;;;;;;;90.97;41.25;;;;;;;;;;4423388;32;20074;-69
2022/10/14 06:54:08;;;;;;;85.43;38.65;;;;;;;;;;4423811;32;20501;-70
2022/10/14 06:56:33;;;;;;;84.05;39.47;;;;;;;;;;4438043;32;20078;-69
2022/10/14 06:58:58;;;;;;;86.22;39.60;;;;;;;;;;4438506;32;20091;-69
2022/10/14 07:01:24;;;;;;;99.18;39.88;;;;;;;;;;4437454;32;20033;-69
2022/10/14 07:03:49;;;;;;;96.80;39.08;;;;;;;;;;4438160;32;20037;-68
2022/10/14 07:06:14;;;;;;;86.00;39.17;;;;;;;;;;4436900;32;20033;-71
2022/10/14 07:08:40;;;;;;;98.65;41.58;;;;;;;;;;4437848;32;20025;-70
2022/10/14 07:11:05;;;;;;;77.43;37.10;;;;;;;;;;4438027;32;20025;-69
2022/10/14 07:13:30;;;;;;;118.97;44.42;;;;;;;;;;4436376;32;20030;-68
2022/10/14 07:15:55;;;;;;;106.50;39.95;;;;;;;;;;4436099;32;20067;-70
2022/10/14 07:18:21;;;;;;;105.35;44.15;;;;;;;;;;4438278;32;20102;-69
2022/10/14 07:20:46;;;;;;;98.47;41.53;;;;;;;;;;4436222;32;20056;-68
2022/10/14 07:23:11;;;;;;;119.05;44.85;;;;;;;;;;4436423;32;20094;-67
2022/10/14 07:25:36;;;;;;;137.20;47.60;;;;;;;;;;4422583;32;20093;-68
2022/10/14 07:28:02;;;;;;;157.50;50.72;;;;;;;;;;4421958;32;20175;-68
2022/10/14 07:30:27;;;;;;;128.15;46.55;;;;;;;;;;4438017;32;20048;-70
2022/10/14 07:32:52;;;;;;;107.55;44.83;;;;;;;;;;4438150;32;20068;-70
2022/10/14 07:35:18;;;;;;;132.07;47.75;;;;;;;;;;4436218;32;20025;-69
2022/10/14 07:37:43;;;;;;;124.00;46.17;;;;;;;;;;4437113;32;20363;-68
2022/10/14 07:40:09;;;;;;;134.25;49.20;;;;;;;;;;4435844;32;20069;-69
2022/10/14 07:42:34;;;;;;;154.52;53.00;;;;;;;;;;4437410;32;20343;-69
2022/10/14 07:44:59;;;;;;;125.30;50.53;;;;;;;;;;4436468;32;20167;-69
2022/10/14 07:47:24;;;;;;;158.63;54.20;;;;;;;;;;4435425;32;20059;-69
2022/10/14 07:49:50;;;;;;;150.00;52.17;;;;;;;;;;4436691;32;20411;-68
2022/10/14 07:52:15;;;;;;;119.43;50.97;;;;;;;;;;4435590;32;20329;-69
2022/10/14 07:54:40;;;;;;;141.20;53.67;;;;;;;;;;4423333;32;20460;-68
2022/10/14 07:57:06;;;;;;;149.48;52.65;;;;;;;;;;4435658;32;20105;-69
2022/10/14 07:59:31;;;;;;;148.10;54.95;;;;;;;;;;4435687;32;20094;-69
2022/10/14 08:01:56;;;;;;;164.27;56.15;;;;;;;;;;4421700;32;20064;-68
2022/10/14 08:04:22;;;;;;;141.00;54.28;;;;;;;;;;4435508;32;20033;-68
2022/10/14 08:06:48;;;;;;;170.98;59.83;;;;;;;;;;4426692;32;20052;-68
2022/10/14 08:09:13;;;;;;;143.32;54.20;;;;;;;;;;4420566;32;20026;-69
2022/10/14 08:11:39;;;;;;;145.95;52.40;;;;;;;;;;4420007;32;20053;-68
2022/10/14 08:14:05;;;;;;;116.85;50.60;;;;;;;;;;4421470;32;20072;-68
2022/10/14 08:16:32;;;;;;;148.15;55.00;;;;;;;;;;4421772;32;20026;-68
2022/10/14 08:18:59;;;;;;;145.02;57.72;;;;;;;;;;4418683;32;20048;-67
2022/10/14 08:21:24;;;;;;;138.65;54.80;;;;;;;;;;4418983;32;20034;-68
2022/10/14 08:23:50;;;;;;;146.27;54.70;;;;;;;;;;4421140;32;20054;-68
2022/10/14 08:26:21;;;;;;;130.27;53.65;;;;;;;;;;4420139;32;20447;-67
2022/10/14 08:28:47;;;;;;;154.85;54.60;;;;;;;;;;4420009;32;20034;-68
2022/10/14 08:31:12;;;;;;;139.25;54.97;;;;;;;;;;4420277;32;20352;-68
2022/10/14 08:33:37;;;;;;;121.25;50.53;;;;;;;;;;4421827;32;20078;-68
2022/10/14 08:36:03;;;;;;;136.12;53.22;;;;;;;;;;4436465;32;20034;-69
2022/10/14 08:38:29;;;;;;;113.37;49.95;;;;;;;;;;4435858;32;20061;-67
2022/10/14 08:40:58;;;;;;;127.65;51.33;;;;;;;;;;4436570;32;20021;-69
2022/10/14 08:43:32;;;;;;;131.30;52.97;;;;;;;;;;4436321;32;20070;-68
2022/10/14 08:46:17;;;;;;;137.12;52.67;;;;;;;;;;4435276;32;20080;-69
2022/10/14 08:48:43;;;;;;;115.93;52.28;;;;;;;;;;4434887;32;20060;-68
2022/10/14 08:51:11;;;;;;;109.50;50.67;;;;;;;;;;4421327;32;20457;-68
2022/10/14 08:53:42;;;;;;;122.47;51.30;;;;;;;;;;4435176;32;20029;-68
2022/10/14 08:56:10;;;;;;;90.03;44.78;;;;;;;;;;4437049;32;20085;-68
2022/10/14 08:58:46;;;;;;;121.62;49.58;;;;;;;;;;4426128;32;20359;-67
2022/10/14 09:01:11;;;;;;;87.57;46.70;;;;;;;;;;4438697;32;20041;-68
2022/10/14 09:03:36;;;;;;;115.05;46.92;;;;;;;;;;4420954;32;20022;-69
2022/10/14 09:06:03;;;;;;;103.30;47.72;;;;;;;;;;4438882;32;20121;-69
2022/10/14 09:08:49;;;;;;;112.32;51.58;;;;;;;;;;4438161;32;20101;-69
2022/10/14 09:11:19;;;;;;;97.37;45.22;;;;;;;;;;4438744;32;20026;-68
2022/10/14 09:13:45;;;;;;;101.25;47.13;;;;;;;;;;4437935;32;20131;-67
2022/10/14 09:16:20;;;;;;;103.12;47.17;;;;;;;;;;4438781;32;20068;-68
2022/10/14 09:18:53;;;;;;;77.47;39.55;;;;;;;;;;4437983;32;20108;-70
2022/10/14 09:21:24;;;;;;;93.87;43.03;;;;;;;;;;4439961;32;20183;-68
2022/10/14 09:23:56;;;;;;;86.87;43.65;;;;;;;;;;4424589;32;20167;-68
2022/10/14 09:26:21;;;;;;;94.72;42.45;;;;;;;;;;4438594;32;20013;-68
2022/10/14 09:28:48;;;;;;;86.53;41.85;;;;;;;;;;4439651;32;20090;-68
2022/10/14 09:31:14;;;;;;;73.35;39.10;;;;;;;;;;4423792;32;20021;-69
2022/10/14 09:33:40;;;;;;;82.47;38.78;;;;;;;;;;4431589;32;20022;-69
2022/10/14 09:36:11;;;;;;;69.45;38.08;;;;;;;;;;4422902;32;20037;-68
2022/10/14 09:38:36;;;;;;;63.50;36.13;;;;;;;;;;4423780;32;20435;-68
2022/10/14 09:41:01;;;;;;;60.78;35.55;;;;;;;;;;4422368;32;20053;-69
2022/10/14 09:43:28;;;;;;;67.53;38.95;;;;;;;;;;4422715;32;20072;-69
2022/10/14 09:46:01;;;;;;;54.80;32.75;;;;;;;;;;4423267;32;20022;-69
2022/10/14 09:48:53;;;;;;;47.05;30.75;;;;;;;;;;4422436;32;20025;-68
2022/10/14 09:51:24;;;;;;;63.20;35.50;;;;;;;;;;4420194;32;20061;-69
2022/10/14 09:53:52;;;;;;;45.17;30.17;;;;;;;;;;4423207;32;20049;-69
2022/10/14 09:56:26;;;;;;;43.28;29.55;;;;;;;;;;4422795;32;20423;-68
2022/10/14 09:58:54;;;;;;;42.58;28.62;;;;;;;;;;4409124;32;20119;-68
2022/10/14 10:01:20;;;;;;;47.72;30.70;;;;;;;;;;4422107;32;20061;-68
2022/10/14 10:03:46;;;;;;;39.25;27.70;;;;;;;;;;4422353;32;20417;-68
2022/10/14 10:06:13;;;;;;;49.88;30.70;;;;;;;;;;4407947;32;20021;-68
2022/10/14 10:09:00;;;;;;;40.85;28.27;;;;;;;;;;4422146;32;20029;-67
2022/10/14 10:11:27;;;;;;;;;;;;;;;;;;4422760;32;20037;-67
2022/10/14 10:13:52;;;;;;;36.63;26.30;;;;;;;;;;4408793;32;19940;-69
2022/10/14 10:16:17;;;;;;;41.15;27.75;;;;;;;;;;4408259;32;20072;-72
2022/10/14 10:18:42;;;;;;;36.95;26.55;;;;;;;;;;4423710;32;20029;-68
2022/10/14 10:21:37;;;;;;;33.28;25.27;;;;;;;;;;4423145;32;20113;-70
2022/10/14 10:24:02;;;;;;;33.08;24.48;;;;;;;;;;4395269;32;20099;-68
2022/10/14 10:26:32;;;;;;;34.33;25.98;;;;;;;;;;4421699;32;20092;-69
2022/10/14 10:29:03;;;;;;;35.65;25.33;;;;;;;;;;4429624;32;20081;-69
2022/10/14 10:31:47;;;;;;;35.90;25.48;;;;;;;;;;4429087;32;20088;-69
2022/10/14 10:34:27;;;;;;;34.92;25.75;;;;;;;;;;4429210;32;20363;-69
2022/10/14 10:36:56;;;;;;;32.85;26.30;;;;;;;;;;4427058;32;20056;-69
2022/10/14 10:39:44;;;;;;;33.03;23.87;;;;;;;;;;4425800;32;20046;-68
2022/10/14 10:42:15;;;;;;;30.73;24.12;;;;;;;;;;4427543;32;20136;-69
2022/10/14 10:45:02;;;;;;;31.15;22.92;;;;;;;;;;4413585;32;20101;-70
2022/10/14 10:47:51;;;;;;;26.45;22.23;;;;;;;;;;4429918;32;20092;-68
2022/10/14 10:50:22;;;;;;;32.95;25.52;;;;;;;;;;4419787;32;20413;-69
2022/10/14 10:52:50;;;;;;;26.58;22.48;;;;;;;;;;4414640;32;20119;-70
2022/10/14 10:55:24;;;;;;;25.73;22.70;;;;;;;;;;4428714;32;20045;-70
2022/10/14 10:57:51;;;;;;;30.83;23.12;;;;;;;;;;4413030;32;20090;-69
2022/10/14 11:00:19;;;;;;;28.77;23.33;;;;;;;;;;4427273;32;20034;-68
2022/10/14 11:02:53;;;;;;;24.40;20.65;;;;;;;;;;4426112;32;20065;-70
2022/10/14 11:05:57;;;;;;;25.10;19.37;;;;;;;;;;4427728;32;20250;-68
2022/10/14 11:14:09;;;;;;;23.83;19.42;;;;;;;;;;4418317;32;20239;-69
2022/10/14 11:16:39;;;;;;;25.88;20.55;;;;;;;;;;4426041;32;20384;-70
2022/10/14 11:19:04;;;;;;;28.90;20.20;;;;;;;;;;4411726;32;20638;-69
2022/10/14 11:21:41;;;;;;;30.23;20.83;;;;;;;;;;4421844;32;20057;-68
2022/10/14 11:24:07;;;;;;;25.80;19.70;;;;;;;;;;4423896;32;20125;-70
2022/10/14 11:26:35;;;;;;;23.27;18.90;;;;;;;;;;4427819;32;20029;-69
2022/10/14 11:29:19;;;;;;;27.20;18.73;;;;;;;;;;4428407;32;20522;-69
2022/10/14 11:32:03;;;;;;;22.73;17.50;;;;;;;;;;4425846;32;20471;-69
2022/10/14 11:34:51;;;;;;;22.85;16.92;;;;;;;;;;4429020;32;20021;-70
2022/10/14 11:37:49;;;;;;;23.80;17.17;;;;;;;;;;4400659;32;20038;-68
2022/10/14 11:40:14;;;;;;;20.08;16.62;;;;;;;;;;4399960;32;20034;-68
2022/10/14 11:42:42;;;;;;;19.87;16.42;;;;;;;;;;4426792;32;20052;-69
2022/10/14 11:45:26;;;;;;;18.87;15.98;;;;;;;;;;4421875;32;20340;-75
2022/10/14 11:47:52;;;;;;;22.27;17.35;;;;;;;;;;4418356;32;20050;-69
2022/10/14 11:50:20;;;;;;;20.50;16.00;;;;;;;;;;4417759;32;20383;-69
2022/10/14 11:52:55;;;;;;;20.88;16.65;;;;;;;;;;4419979;32;20101;-69
2022/10/14 11:55:25;;;;;;;23.70;17.15;;;;;;;;;;4420235;32;20117;-67
2022/10/14 11:57:55;;;;;;;22.45;17.23;;;;;;;;;;4427390;32;20072;-67
2022/10/14 12:00:24;;;;;;;25.02;18.25;;;;;;;;;;4435678;32;20016;-68
2022/10/14 12:03:08;;;;;;;25.27;18.17;;;;;;;;;;4436223;32;20057;-68
2022/10/14 12:05:46;;;;;;;21.08;16.90;;;;;;;;;;4437348;32;20086;-68
2022/10/14 12:08:32;;;;;;;20.20;15.90;;;;;;;;;;4436424;32;20090;-68
2022/10/14 12:11:07;;;;;;;21.45;15.68;;;;;;;;;;4435805;32;20026;-66
2022/10/14 12:13:40;;;;;;;20.42;16.75;;;;;;;;;;4436946;32;20411;-67
2022/10/14 12:16:10;;;;;;;22.67;17.77;;;;;;;;;;4436694;32;20067;-68
2022/10/14 12:18:35;;;;;;;22.25;16.55;;;;;;;;;;4421341;32;20078;-69
2022/10/14 12:21:06;;;;;;;21.90;16.83;;;;;;;;;;4422222;32;20026;-66
2022/10/14 12:23:31;;;;;;;18.00;15.32;;;;;;;;;;4420786;32;20437;-68
2022/10/14 12:26:14;;;;;;;18.42;15.18;;;;;;;;;;4435134;32;20059;-68
2022/10/14 12:28:40;;;;;;;21.80;16.48;;;;;;;;;;4436346;32;20060;-68
2022/10/14 12:31:25;;;;;;;21.80;15.65;;;;;;;;;;4419165;32;20468;-68
2022/10/14 12:34:09;;;;;;;20.23;16.58;;;;;;;;;;4420920;32;20038;-67
2022/10/14 12:36:34;;;;;;;23.00;17.37;;;;;;;;;;4405777;32;20045;-67
2022/10/14 12:39:25;;;;;;;18.73;16.75;;;;;;;;;;4419445;32;20091;-68
2022/10/14 12:42:01;;;;;;;18.62;16.62;;;;;;;;;;4403770;32;20022;-67
2022/10/14 12:44:34;;;;;;;16.77;14.45;;;;;;;;;;4407242;32;20052;-68
2022/10/14 12:47:00;;;;;;;20.02;14.55;;;;;;;;;;4420927;32;20470;-68
2022/10/14 12:49:33;;;;;;;16.73;14.05;;;;;;;;;;4420707;32;20099;-67
2022/10/14 12:52:03;;;;;;;20.50;15.45;;;;;;;;;;4406163;32;20060;-67
2022/10/14 12:54:29;;;;;;;16.90;13.77;;;;;;;;;;4421211;32;20075;-67
2022/10/14 12:57:14;;;;;;;21.60;14.63;;;;;;;;;;4420171;32;20030;-68
2022/10/14 12:59:39;;;;;;;22.30;14.40;;;;;;;;;;4420735;32;20068;-68
2022/10/14 13:02:23;;;;;;;19.87;13.65;;;;;;;;;;4405708;32;20160;-68
2022/10/14 13:04:50;;;;;;;13.95;11.12;;;;;;;;;;4421262;32;20061;-67
2022/10/14 13:07:15;;;;;;;12.48;9.98;;;;;;;;;;4405893;32;20018;-67
2022/10/14 13:09:41;;;;;;;11.23;9.40;;;;;;;;;;4419991;32;20364;-67
2022/10/14 13:12:10;;;;;;;12.82;9.45;;;;;;;;;;4420108;32;20110;-67
2022/10/14 13:14:56;;;;;;;10.95;9.32;;;;;;;;;;4421159;32;20030;-67
2022/10/14 13:17:40;;;;;;;10.35;8.60;;;;;;;;;;4420017;32;20031;-67
2022/10/14 13:20:25;;;;;;;10.35;7.72;;;;;;;;;;4405181;32;20052;-67
2022/10/14 13:22:51;;;;;;;10.68;8.57;;;;;;;;;;4419467;32;20412;-67
2022/10/14 13:25:17;;;;;;;12.18;8.68;;;;;;;;;;4419358;32;20026;-66
2022/10/14 13:27:45;;;;;;;11.48;9.23;;;;;;;;;;4413311;32;20050;-67
2022/10/14 13:30:10;;;;;;;13.35;9.48;;;;;;;;;;4419243;32;20056;-67
2022/10/14 13:32:46;;;;;;;15.80;9.73;;;;;;;;;;4419166;32;20022;-66
2022/10/14 13:35:17;;;;;;;13.87;9.77;;;;;;;;;;4420936;32;20055;-66
2022/10/14 13:37:54;;;;;;;12.50;9.75;;;;;;;;;;4421717;32;20037;-67
2022/10/14 13:40:23;;;;;;;12.35;8.50;;;;;;;;;;4425641;32;20081;-66
2022/10/14 13:43:07;;;;;;;11.02;8.75;;;;;;;;;;4427711;32;20124;-66
2022/10/14 13:45:38;;;;;;;12.25;9.85;;;;;;;;;;4428307;32;20030;-65
2022/10/14 13:48:03;;;;;;;13.55;10.05;;;;;;;;;;4427479;32;20386;-65
2022/10/14 13:50:35;;;;;;;11.45;9.40;;;;;;;;;;4429188;32;20065;-65
2022/10/14 13:53:02;;;;;;;14.00;9.30;;;;;;;;;;4428505;32;20045;-65
2022/10/14 13:55:29;;;;;;;12.70;9.07;;;;;;;;;;4414618;32;20059;-65
2022/10/14 13:58:09;;;;;;;10.00;8.38;;;;;;;;;;4429465;32;20115;-66
2022/10/14 14:00:36;;;;;;;11.20;8.05;;;;;;;;;;4429704;32;20486;-66
2022/10/14 14:03:09;;;;;;;10.70;6.22;;;;;;;;;;4427874;32;20060;-66
2022/10/14 14:05:34;;;;;;;5.70;4.50;;;;;;;;;;4427677;32;20074;-66
2022/10/14 14:07:59;;;;;;;8.60;5.03;;;;;;;;;;4427287;32;20042;-67
2022/10/14 14:10:25;;;;;;;6.72;5.30;;;;;;;;;;4428542;32;20104;-65
2022/10/14 14:12:50;;;;;;;10.63;5.72;;;;;;;;;;4427544;32;20038;-65
2022/10/14 14:15:18;;;;;;;6.93;5.28;;;;;;;;;;4427365;32;20478;-68
2022/10/14 14:17:43;;;;;;;8.50;4.78;;;;;;;;;;4427541;32;20098;-65
2022/10/14 14:20:10;;;;;;;7.85;4.50;;;;;;;;;;4427545;32;20072;-66
2022/10/14 14:22:40;;;;;;;8.02;4.47;;;;;;;;;;4414281;32;20080;-66
2022/10/14 14:25:09;;;;;;;7.68;5.20;;;;;;;;;;4415064;32;20082;-65
2022/10/14 14:27:35;;;;;;;7.62;5.50;;;;;;;;;;4428008;32;20034;-65
2022/10/14 14:30:01;;;;;;;9.25;4.93;;;;;;;;;;4427284;32;20025;-65
2022/10/14 14:32:30;;;;;;;11.25;5.10;;;;;;;;;;4427273;32;20124;-69
2022/10/14 14:34:55;;;;;;;5.68;4.95;;;;;;;;;;4414949;32;20482;-65
2022/10/14 14:37:24;;;;;;;8.43;6.60;;;;;;;;;;4426186;32;20061;-66